sensor_id;sensor_type;location;lat;lon;timestamp;temperature;humidity
31967;DHT22;18496;52.042;6.812;2023-12-14T00:00:55;9.50;99.90
31967;DHT22;18496;52.042;6.812;2023-12-14T00:02:59;9.50;99.90
31967;DHT22;18496;52.042;6.812;2023-12-14T00:05:03;9.50;99.90
31967;DHT22;18496;52.042;6.812;2023-12-14T00:07:07;9.40;99.90
31967;DHT22;18496;52.042;6.812;2023-12-14T00:09:11;9.40;99.90
31967;DHT22;18496;52.042;6.812;2023-12-14T00:11:15;9.40;99.90
31967;DHT22;18496;52.042;6.812;2023-12-14T00:13:18;9.40;99.90
31967;DHT22;18496;52.042;6.812;2023-12-14T00:15:22;9.40;99.90
31967;DHT22;18496;52.042;6.812;2023-12-14T00:17:26;9.30;99.90
31967;DHT22;18496;52.042;6.812;2023-12-14T00:19:30;9.30;99.90
31967;DHT22;18496;52.042;6.812;2023-12-14T00:21:33;9.30;99.90
31967;DHT22;18496;52.042;6.812;2023-12-14T00:23:37;9.30;99.90
31967;DHT22;18496;52.042;6.812;2023-12-14T00:25:41;9.30;99.90
31967;DHT22;18496;52.042;6.812;2023-12-14T00:27:45;9.30;99.90
31967;DHT22;18496;52.042;6.812;2023-12-14T00:29:48;9.30;99.90
31967;DHT22;18496;52.042;6.812;2023-12-14T00:31:52;9.30;99.90
31967;DHT22;18496;52.042;6.812;2023-12-14T00:33:56;9.30;99.90
31967;DHT22;18496;52.042;6.812;2023-12-14T00:35:59;9.30;99.90
31967;DHT22;18496;52.042;6.812;2023-12-14T00:38:03;9.30;99.90
31967;DHT22;18496;52.042;6.812;2023-12-14T00:40:07;9.30;99.90
31967;DHT22;18496;52.042;6.812;2023-12-14T00:42:11;9.30;99.90
31967;DHT22;18496;52.042;6.812;2023-12-14T00:44:15;9.30;99.90
31967;DHT22;18496;52.042;6.812;2023-12-14T00:46:18;9.30;99.90
31967;DHT22;18496;52.042;6.812;2023-12-14T00:48:22;9.30;99.90
31967;DHT22;18496;52.042;6.812;2023-12-14T00:50:26;9.30;99.90
31967;DHT22;18496;52.042;6.812;2023-12-14T00:52:30;9.30;99.90
31967;DHT22;18496;52.042;6.812;2023-12-14T00:54:33;9.30;99.90
31967;DHT22;18496;52.042;6.812;2023-12-14T00:56:37;9.20;99.90
31967;DHT22;18496;52.042;6.812;2023-12-14T00:58:41;9.20;99.90
31967;DHT22;18496;52.042;6.812;2023-12-14T01:00:45;9.20;99.90
31967;DHT22;18496;52.042;6.812;2023-12-14T01:02:49;9.20;99.90
31967;DHT22;18496;52.042;6.812;2023-12-14T01:04:53;9.20;99.90
31967;DHT22;18496;52.042;6.812;2023-12-14T01:06:56;9.20;99.90
31967;DHT22;18496;52.042;6.812;2023-12-14T01:09:00;9.20;99.90
31967;DHT22;18496;52.042;6.812;2023-12-14T01:11:04;9.10;99.90
31967;DHT22;18496;52.042;6.812;2023-12-14T01:13:08;9.10;99.90
31967;DHT22;18496;52.042;6.812;2023-12-14T01:15:12;9.10;99.90
31967;DHT22;18496;52.042;6.812;2023-12-14T01:17:15;9.10;99.90
31967;DHT22;18496;52.042;6.812;2023-12-14T01:19:19;9.10;99.90
31967;DHT22;18496;52.042;6.812;2023-12-14T01:21:23;9.10;99.90
31967;DHT22;18496;52.042;6.812;2023-12-14T01:23:27;9.10;99.90
31967;DHT22;18496;52.042;6.812;2023-12-14T01:25:30;9.10;99.90
31967;DHT22;18496;52.042;6.812;2023-12-14T01:27:34;9.10;99.90
31967;DHT22;18496;52.042;6.812;2023-12-14T01:29:38;9.10;99.90
31967;DHT22;18496;52.042;6.812;2023-12-14T01:31:42;9.10;99.90
31967;DHT22;18496;52.042;6.812;2023-12-14T01:33:45;9.10;99.90
31967;DHT22;18496;52.042;6.812;2023-12-14T01:35:49;9.10;99.90
31967;DHT22;18496;52.042;6.812;2023-12-14T01:37:53;9.10;99.90
31967;DHT22;18496;52.042;6.812;2023-12-14T01:39:57;9.00;99.90
31967;DHT22;18496;52.042;6.812;2023-12-14T01:42:00;9.10;99.90
31967;DHT22;18496;52.042;6.812;2023-12-14T01:44:04;9.00;99.90
31967;DHT22;18496;52.042;6.812;2023-12-14T01:46:08;9.00;99.90
31967;DHT22;18496;52.042;6.812;2023-12-14T01:48:12;9.00;99.90
31967;DHT22;18496;52.042;6.812;2023-12-14T01:50:16;9.00;99.90
31967;DHT22;18496;52.042;6.812;2023-12-14T01:52:20;9.00;99.90
31967;DHT22;18496;52.042;6.812;2023-12-14T01:54:23;9.00;99.90
31967;DHT22;18496;52.042;6.812;2023-12-14T01:56:27;9.00;99.90
31967;DHT22;18496;52.042;6.812;2023-12-14T01:58:31;9.00;99.90
31967;DHT22;18496;52.042;6.812;2023-12-14T02:02:52;9.00;99.90
31967;DHT22;18496;52.042;6.812;2023-12-14T02:04:55;9.00;99.90
31967;DHT22;18496;52.042;6.812;2023-12-14T02:06:59;9.00;99.90
31967;DHT22;18496;52.042;6.812;2023-12-14T02:09:04;9.00;99.90
31967;DHT22;18496;52.042;6.812;2023-12-14T02:11:08;9.00;99.90
31967;DHT22;18496;52.042;6.812;2023-12-14T02:13:12;8.90;99.90
31967;DHT22;18496;52.042;6.812;2023-12-14T02:15:15;8.90;99.90
31967;DHT22;18496;52.042;6.812;2023-12-14T02:17:19;8.90;99.90
31967;DHT22;18496;52.042;6.812;2023-12-14T02:19:23;8.90;99.90
31967;DHT22;18496;52.042;6.812;2023-12-14T02:21:26;8.90;99.90
31967;DHT22;18496;52.042;6.812;2023-12-14T02:23:30;8.90;99.90
31967;DHT22;18496;52.042;6.812;2023-12-14T02:25:34;8.90;99.90
31967;DHT22;18496;52.042;6.812;2023-12-14T02:27:38;8.90;99.90
31967;DHT22;18496;52.042;6.812;2023-12-14T02:29:41;8.90;99.90
31967;DHT22;18496;52.042;6.812;2023-12-14T02:31:46;8.90;99.90
31967;DHT22;18496;52.042;6.812;2023-12-14T02:33:50;8.90;99.90
31967;DHT22;18496;52.042;6.812;2023-12-14T02:35:54;8.90;99.90
31967;DHT22;18496;52.042;6.812;2023-12-14T02:37:58;8.90;99.90
31967;DHT22;18496;52.042;6.812;2023-12-14T02:40:02;8.90;99.90
31967;DHT22;18496;52.042;6.812;2023-12-14T02:42:07;8.90;99.90
31967;DHT22;18496;52.042;6.812;2023-12-14T02:44:10;8.90;99.90
31967;DHT22;18496;52.042;6.812;2023-12-14T02:46:14;8.90;99.90
31967;DHT22;18496;52.042;6.812;2023-12-14T02:48:18;8.90;99.90
31967;DHT22;18496;52.042;6.812;2023-12-14T02:50:22;8.80;99.90
31967;DHT22;18496;52.042;6.812;2023-12-14T02:52:26;8.80;99.90
31967;DHT22;18496;52.042;6.812;2023-12-14T02:54:30;8.80;99.90
31967;DHT22;18496;52.042;6.812;2023-12-14T02:56:33;8.80;99.90
31967;DHT22;18496;52.042;6.812;2023-12-14T02:58:37;8.80;99.90
31967;DHT22;18496;52.042;6.812;2023-12-14T03:00:41;8.80;99.90
31967;DHT22;18496;52.042;6.812;2023-12-14T03:02:45;8.80;99.90
31967;DHT22;18496;52.042;6.812;2023-12-14T03:04:49;8.80;99.90
31967;DHT22;18496;52.042;6.812;2023-12-14T03:06:52;8.80;99.90
31967;DHT22;18496;52.042;6.812;2023-12-14T03:08:57;8.80;99.90
31967;DHT22;18496;52.042;6.812;2023-12-14T03:11:01;8.80;99.90
31967;DHT22;18496;52.042;6.812;2023-12-14T03:13:04;8.70;99.90
31967;DHT22;18496;52.042;6.812;2023-12-14T03:15:08;8.80;99.90
31967;DHT22;18496;52.042;6.812;2023-12-14T03:17:12;8.80;99.90
31967;DHT22;18496;52.042;6.812;2023-12-14T03:19:16;8.80;99.90
31967;DHT22;18496;52.042;6.812;2023-12-14T03:21:20;8.80;99.90
31967;DHT22;18496;52.042;6.812;2023-12-14T03:23:24;8.80;99.90
31967;DHT22;18496;52.042;6.812;2023-12-14T03:25:27;8.80;99.90
31967;DHT22;18496;52.042;6.812;2023-12-14T03:27:31;8.70;99.90
31967;DHT22;18496;52.042;6.812;2023-12-14T03:29:35;8.70;99.90
31967;DHT22;18496;52.042;6.812;2023-12-14T03:31:39;8.70;99.90
31967;DHT22;18496;52.042;6.812;2023-12-14T03:33:43;8.70;99.90
31967;DHT22;18496;52.042;6.812;2023-12-14T03:35:47;8.70;99.90
31967;DHT22;18496;52.042;6.812;2023-12-14T03:37:51;8.60;99.90
31967;DHT22;18496;52.042;6.812;2023-12-14T03:39:54;8.60;99.90
31967;DHT22;18496;52.042;6.812;2023-12-14T03:41:58;8.60;99.90
31967;DHT22;18496;52.042;6.812;2023-12-14T03:44:02;8.60;99.90
31967;DHT22;18496;52.042;6.812;2023-12-14T03:46:06;8.60;99.90
31967;DHT22;18496;52.042;6.812;2023-12-14T03:48:10;8.60;99.90
31967;DHT22;18496;52.042;6.812;2023-12-14T03:50:14;8.60;99.90
31967;DHT22;18496;52.042;6.812;2023-12-14T03:52:17;8.60;99.90
31967;DHT22;18496;52.042;6.812;2023-12-14T03:54:21;8.60;99.90
31967;DHT22;18496;52.042;6.812;2023-12-14T03:56:25;8.60;99.90
31967;DHT22;18496;52.042;6.812;2023-12-14T03:58:29;8.60;99.90
31967;DHT22;18496;52.042;6.812;2023-12-14T04:00:32;8.60;99.90
31967;DHT22;18496;52.042;6.812;2023-12-14T04:02:36;8.60;99.90
31967;DHT22;18496;52.042;6.812;2023-12-14T04:04:40;8.60;99.90
31967;DHT22;18496;52.042;6.812;2023-12-14T04:06:43;8.50;99.90
31967;DHT22;18496;52.042;6.812;2023-12-14T04:08:47;8.50;99.90
31967;DHT22;18496;52.042;6.812;2023-12-14T04:10:51;8.50;99.90
31967;DHT22;18496;52.042;6.812;2023-12-14T04:12:55;8.50;99.90
31967;DHT22;18496;52.042;6.812;2023-12-14T04:14:58;8.50;99.90
31967;DHT22;18496;52.042;6.812;2023-12-14T04:17:02;8.60;99.90
31967;DHT22;18496;52.042;6.812;2023-12-14T04:19:06;8.50;99.90
31967;DHT22;18496;52.042;6.812;2023-12-14T04:21:13;8.50;99.90
31967;DHT22;18496;52.042;6.812;2023-12-14T04:23:17;8.50;99.90
31967;DHT22;18496;52.042;6.812;2023-12-14T04:25:21;8.50;99.90
31967;DHT22;18496;52.042;6.812;2023-12-14T04:27:25;8.50;99.90
31967;DHT22;18496;52.042;6.812;2023-12-14T04:29:32;8.50;99.90
31967;DHT22;18496;52.042;6.812;2023-12-14T04:31:36;8.50;99.90
31967;DHT22;18496;52.042;6.812;2023-12-14T04:33:39;8.50;99.90
31967;DHT22;18496;52.042;6.812;2023-12-14T04:35:43;8.50;99.90
31967;DHT22;18496;52.042;6.812;2023-12-14T04:37:47;8.50;99.90
31967;DHT22;18496;52.042;6.812;2023-12-14T04:39:51;8.50;99.90
31967;DHT22;18496;52.042;6.812;2023-12-14T04:41:55;8.50;99.90
31967;DHT22;18496;52.042;6.812;2023-12-14T04:43:58;8.50;99.90
31967;DHT22;18496;52.042;6.812;2023-12-14T04:46:02;8.50;99.90
31967;DHT22;18496;52.042;6.812;2023-12-14T04:48:06;8.50;99.90
31967;DHT22;18496;52.042;6.812;2023-12-14T04:50:10;8.50;99.90
31967;DHT22;18496;52.042;6.812;2023-12-14T04:52:13;8.50;99.90
31967;DHT22;18496;52.042;6.812;2023-12-14T04:54:17;8.50;99.90
31967;DHT22;18496;52.042;6.812;2023-12-14T04:56:21;8.50;99.90
31967;DHT22;18496;52.042;6.812;2023-12-14T04:58:24;8.50;99.90
31967;DHT22;18496;52.042;6.812;2023-12-14T05:00:28;8.50;99.90
31967;DHT22;18496;52.042;6.812;2023-12-14T05:02:32;8.50;99.90
31967;DHT22;18496;52.042;6.812;2023-12-14T05:04:36;8.50;99.90
31967;DHT22;18496;52.042;6.812;2023-12-14T05:06:40;8.50;99.90
31967;DHT22;18496;52.042;6.812;2023-12-14T05:08:44;8.50;99.90
31967;DHT22;18496;52.042;6.812;2023-12-14T05:10:48;8.60;99.90
31967;DHT22;18496;52.042;6.812;2023-12-14T05:12:52;8.50;99.90
31967;DHT22;18496;52.042;6.812;2023-12-14T05:14:55;8.50;99.90
31967;DHT22;18496;52.042;6.812;2023-12-14T05:16:59;8.50;99.90
31967;DHT22;18496;52.042;6.812;2023-12-14T05:19:03;8.50;99.90
31967;DHT22;18496;52.042;6.812;2023-12-14T05:21:07;8.50;99.90
31967;DHT22;18496;52.042;6.812;2023-12-14T05:23:11;8.50;99.90
31967;DHT22;18496;52.042;6.812;2023-12-14T05:25:15;8.50;99.90
31967;DHT22;18496;52.042;6.812;2023-12-14T05:27:18;8.50;99.90
31967;DHT22;18496;52.042;6.812;2023-12-14T05:29:22;8.50;99.90
31967;DHT22;18496;52.042;6.812;2023-12-14T05:31:26;8.50;99.90
31967;DHT22;18496;52.042;6.812;2023-12-14T05:33:30;8.50;99.90
31967;DHT22;18496;52.042;6.812;2023-12-14T05:35:34;8.50;99.90
31967;DHT22;18496;52.042;6.812;2023-12-14T05:37:39;8.50;99.90
31967;DHT22;18496;52.042;6.812;2023-12-14T05:39:43;8.50;99.90
31967;DHT22;18496;52.042;6.812;2023-12-14T05:41:48;8.50;99.90
31967;DHT22;18496;52.042;6.812;2023-12-14T05:43:52;8.50;99.90
31967;DHT22;18496;52.042;6.812;2023-12-14T05:45:56;8.50;99.90
31967;DHT22;18496;52.042;6.812;2023-12-14T05:47:59;8.40;99.90
31967;DHT22;18496;52.042;6.812;2023-12-14T05:50:04;8.40;99.90
31967;DHT22;18496;52.042;6.812;2023-12-14T05:52:08;8.50;99.90
31967;DHT22;18496;52.042;6.812;2023-12-14T05:54:11;8.50;99.90
31967;DHT22;18496;52.042;6.812;2023-12-14T05:56:15;8.50;99.90
31967;DHT22;18496;52.042;6.812;2023-12-14T05:58:21;8.50;99.90
31967;DHT22;18496;52.042;6.812;2023-12-14T06:00:24;8.40;99.90
31967;DHT22;18496;52.042;6.812;2023-12-14T06:02:28;8.40;99.90
31967;DHT22;18496;52.042;6.812;2023-12-14T06:04:32;8.40;99.90
31967;DHT22;18496;52.042;6.812;2023-12-14T06:06:38;8.40;99.90
31967;DHT22;18496;52.042;6.812;2023-12-14T06:08:43;8.40;99.90
31967;DHT22;18496;52.042;6.812;2023-12-14T06:10:46;8.40;99.90
31967;DHT22;18496;52.042;6.812;2023-12-14T06:12:50;8.30;99.90
31967;DHT22;18496;52.042;6.812;2023-12-14T06:14:54;8.40;99.90
31967;DHT22;18496;52.042;6.812;2023-12-14T06:16:58;8.30;99.90
31967;DHT22;18496;52.042;6.812;2023-12-14T06:19:02;8.30;99.90
31967;DHT22;18496;52.042;6.812;2023-12-14T06:21:05;8.30;99.90
31967;DHT22;18496;52.042;6.812;2023-12-14T06:23:09;8.30;99.90
31967;DHT22;18496;52.042;6.812;2023-12-14T06:25:13;8.30;99.90
31967;DHT22;18496;52.042;6.812;2023-12-14T06:27:17;8.30;99.90
31967;DHT22;18496;52.042;6.812;2023-12-14T06:29:21;8.20;99.90
31967;DHT22;18496;52.042;6.812;2023-12-14T06:31:25;8.20;99.90
31967;DHT22;18496;52.042;6.812;2023-12-14T06:33:28;8.20;99.90
31967;DHT22;18496;52.042;6.812;2023-12-14T06:35:32;8.20;99.90
31967;DHT22;18496;52.042;6.812;2023-12-14T06:37:36;8.20;99.90
31967;DHT22;18496;52.042;6.812;2023-12-14T06:39:43;8.20;99.90
31967;DHT22;18496;52.042;6.812;2023-12-14T06:41:46;8.10;99.90
31967;DHT22;18496;52.042;6.812;2023-12-14T06:43:50;8.10;99.90
31967;DHT22;18496;52.042;6.812;2023-12-14T06:45:54;8.10;99.90
31967;DHT22;18496;52.042;6.812;2023-12-14T06:47:58;8.00;99.90
31967;DHT22;18496;52.042;6.812;2023-12-14T06:50:01;8.00;99.90
31967;DHT22;18496;52.042;6.812;2023-12-14T06:52:05;8.00;99.90
31967;DHT22;18496;52.042;6.812;2023-12-14T06:54:09;8.00;99.90
31967;DHT22;18496;52.042;6.812;2023-12-14T06:56:13;8.00;99.90
31967;DHT22;18496;52.042;6.812;2023-12-14T06:58:18;8.00;99.90
31967;DHT22;18496;52.042;6.812;2023-12-14T07:00:21;8.00;99.90
31967;DHT22;18496;52.042;6.812;2023-12-14T07:02:25;8.00;99.90
31967;DHT22;18496;52.042;6.812;2023-12-14T07:04:29;8.10;99.90
31967;DHT22;18496;52.042;6.812;2023-12-14T07:06:33;8.10;99.90
31967;DHT22;18496;52.042;6.812;2023-12-14T07:08:39;8.10;99.90
31967;DHT22;18496;52.042;6.812;2023-12-14T07:10:43;8.10;99.90
31967;DHT22;18496;52.042;6.812;2023-12-14T07:12:46;8.10;99.90
31967;DHT22;18496;52.042;6.812;2023-12-14T07:14:50;8.10;99.90
31967;DHT22;18496;52.042;6.812;2023-12-14T07:16:54;8.10;99.90
31967;DHT22;18496;52.042;6.812;2023-12-14T07:18:58;8.10;99.90
31967;DHT22;18496;52.042;6.812;2023-12-14T07:21:02;8.10;99.90
31967;DHT22;18496;52.042;6.812;2023-12-14T07:23:06;8.10;99.90
31967;DHT22;18496;52.042;6.812;2023-12-14T07:25:10;8.10;99.90
31967;DHT22;18496;52.042;6.812;2023-12-14T07:27:14;8.10;99.90
31967;DHT22;18496;52.042;6.812;2023-12-14T07:29:18;8.10;99.90
31967;DHT22;18496;52.042;6.812;2023-12-14T07:31:21;8.10;99.90
31967;DHT22;18496;52.042;6.812;2023-12-14T07:33:26;8.10;99.90
31967;DHT22;18496;52.042;6.812;2023-12-14T07:35:29;8.10;99.90
31967;DHT22;18496;52.042;6.812;2023-12-14T07:37:33;8.00;99.90
31967;DHT22;18496;52.042;6.812;2023-12-14T07:39:37;8.00;99.90
31967;DHT22;18496;52.042;6.812;2023-12-14T07:41:41;8.10;99.90
31967;DHT22;18496;52.042;6.812;2023-12-14T07:43:45;8.10;99.90
31967;DHT22;18496;52.042;6.812;2023-12-14T07:45:48;8.10;99.90
31967;DHT22;18496;52.042;6.812;2023-12-14T07:47:52;8.10;99.90
31967;DHT22;18496;52.042;6.812;2023-12-14T07:49:57;8.10;99.90
31967;DHT22;18496;52.042;6.812;2023-12-14T07:52:01;8.10;99.90
31967;DHT22;18496;52.042;6.812;2023-12-14T07:54:04;8.10;99.90
31967;DHT22;18496;52.042;6.812;2023-12-14T07:56:08;8.10;99.90
31967;DHT22;18496;52.042;6.812;2023-12-14T07:58:12;8.10;99.90
31967;DHT22;18496;52.042;6.812;2023-12-14T08:00:17;8.10;99.90
31967;DHT22;18496;52.042;6.812;2023-12-14T08:02:20;8.10;99.90
31967;DHT22;18496;52.042;6.812;2023-12-14T08:04:24;8.10;99.90
31967;DHT22;18496;52.042;6.812;2023-12-14T08:06:28;8.10;99.90
31967;DHT22;18496;52.042;6.812;2023-12-14T08:08:32;8.10;99.90
31967;DHT22;18496;52.042;6.812;2023-12-14T08:10:36;8.10;99.90
31967;DHT22;18496;52.042;6.812;2023-12-14T08:12:39;8.10;99.90
31967;DHT22;18496;52.042;6.812;2023-12-14T08:14:43;8.10;99.90
31967;DHT22;18496;52.042;6.812;2023-12-14T08:16:47;8.00;99.90
31967;DHT22;18496;52.042;6.812;2023-12-14T08:18:51;8.00;99.90
31967;DHT22;18496;52.042;6.812;2023-12-14T08:20:55;8.00;99.90
31967;DHT22;18496;52.042;6.812;2023-12-14T08:22:58;8.00;99.90
31967;DHT22;18496;52.042;6.812;2023-12-14T08:25:02;8.00;99.90
31967;DHT22;18496;52.042;6.812;2023-12-14T08:27:07;8.00;99.90
31967;DHT22;18496;52.042;6.812;2023-12-14T08:29:11;8.00;99.90
31967;DHT22;18496;52.042;6.812;2023-12-14T08:31:15;8.00;99.90
31967;DHT22;18496;52.042;6.812;2023-12-14T08:33:19;8.00;99.90
31967;DHT22;18496;52.042;6.812;2023-12-14T08:35:22;8.00;99.90
31967;DHT22;18496;52.042;6.812;2023-12-14T08:37:26;8.00;99.90
31967;DHT22;18496;52.042;6.812;2023-12-14T08:39:30;8.00;99.90
31967;DHT22;18496;52.042;6.812;2023-12-14T08:41:34;8.00;99.90
31967;DHT22;18496;52.042;6.812;2023-12-14T08:43:37;7.90;99.90
31967;DHT22;18496;52.042;6.812;2023-12-14T08:45:41;7.90;99.90
31967;DHT22;18496;52.042;6.812;2023-12-14T08:47:45;7.90;99.90
31967;DHT22;18496;52.042;6.812;2023-12-14T08:49:49;7.90;99.90
31967;DHT22;18496;52.042;6.812;2023-12-14T08:51:53;7.90;99.90
31967;DHT22;18496;52.042;6.812;2023-12-14T08:53:57;8.00;99.90
31967;DHT22;18496;52.042;6.812;2023-12-14T08:56:00;7.90;99.90
31967;DHT22;18496;52.042;6.812;2023-12-14T08:58:06;7.90;99.90
31967;DHT22;18496;52.042;6.812;2023-12-14T09:00:10;7.90;99.90
31967;DHT22;18496;52.042;6.812;2023-12-14T09:02:14;8.00;99.90
31967;DHT22;18496;52.042;6.812;2023-12-14T09:04:17;8.00;99.90
31967;DHT22;18496;52.042;6.812;2023-12-14T09:06:21;8.00;99.90
31967;DHT22;18496;52.042;6.812;2023-12-14T09:08:25;7.90;99.90
31967;DHT22;18496;52.042;6.812;2023-12-14T09:10:28;7.90;99.90
31967;DHT22;18496;52.042;6.812;2023-12-14T09:12:33;7.90;99.90
31967;DHT22;18496;52.042;6.812;2023-12-14T09:14:37;7.90;99.90
31967;DHT22;18496;52.042;6.812;2023-12-14T09:16:41;7.80;99.90
31967;DHT22;18496;52.042;6.812;2023-12-14T09:18:46;7.90;99.90
31967;DHT22;18496;52.042;6.812;2023-12-14T09:20:50;7.90;99.90
31967;DHT22;18496;52.042;6.812;2023-12-14T09:22:53;7.80;99.90
31967;DHT22;18496;52.042;6.812;2023-12-14T09:24:57;7.90;99.90
31967;DHT22;18496;52.042;6.812;2023-12-14T09:27:01;7.90;99.90
31967;DHT22;18496;52.042;6.812;2023-12-14T09:29:05;7.90;99.90
31967;DHT22;18496;52.042;6.812;2023-12-14T09:31:08;7.80;99.90
31967;DHT22;18496;52.042;6.812;2023-12-14T09:33:12;7.80;99.90
31967;DHT22;18496;52.042;6.812;2023-12-14T09:35:16;7.80;99.90
31967;DHT22;18496;52.042;6.812;2023-12-14T09:37:21;7.80;99.90
31967;DHT22;18496;52.042;6.812;2023-12-14T09:39:25;7.80;99.90
31967;DHT22;18496;52.042;6.812;2023-12-14T09:41:29;7.80;99.90
31967;DHT22;18496;52.042;6.812;2023-12-14T09:43:33;7.80;99.90
31967;DHT22;18496;52.042;6.812;2023-12-14T09:45:38;7.80;99.90
31967;DHT22;18496;52.042;6.812;2023-12-14T09:47:46;7.90;99.90
31967;DHT22;18496;52.042;6.812;2023-12-14T09:49:50;7.90;99.90
31967;DHT22;18496;52.042;6.812;2023-12-14T09:51:56;7.90;99.90
31967;DHT22;18496;52.042;6.812;2023-12-14T09:54:00;7.90;99.90
31967;DHT22;18496;52.042;6.812;2023-12-14T09:56:04;7.90;99.90
31967;DHT22;18496;52.042;6.812;2023-12-14T09:58:09;7.80;99.90
31967;DHT22;18496;52.042;6.812;2023-12-14T10:00:38;7.80;99.90
31967;DHT22;18496;52.042;6.812;2023-12-14T10:02:43;7.80;99.90
31967;DHT22;18496;52.042;6.812;2023-12-14T10:04:47;7.70;99.90
31967;DHT22;18496;52.042;6.812;2023-12-14T10:06:50;7.70;99.90
31967;DHT22;18496;52.042;6.812;2023-12-14T10:08:55;7.70;99.90
31967;DHT22;18496;52.042;6.812;2023-12-14T10:11:02;7.70;99.90
31967;DHT22;18496;52.042;6.812;2023-12-14T10:13:07;7.80;99.90
31967;DHT22;18496;52.042;6.812;2023-12-14T10:15:11;7.80;99.90
31967;DHT22;18496;52.042;6.812;2023-12-14T10:17:20;7.80;99.90
31967;DHT22;18496;52.042;6.812;2023-12-14T10:19:24;7.80;99.90
31967;DHT22;18496;52.042;6.812;2023-12-14T10:21:28;7.80;99.90
31967;DHT22;18496;52.042;6.812;2023-12-14T10:23:33;7.80;99.90
31967;DHT22;18496;52.042;6.812;2023-12-14T10:25:38;7.80;99.90
31967;DHT22;18496;52.042;6.812;2023-12-14T10:27:42;7.80;99.90
31967;DHT22;18496;52.042;6.812;2023-12-14T10:29:46;7.80;99.90
31967;DHT22;18496;52.042;6.812;2023-12-14T10:31:50;7.80;99.90
31967;DHT22;18496;52.042;6.812;2023-12-14T10:33:54;7.80;99.90
31967;DHT22;18496;52.042;6.812;2023-12-14T10:35:59;7.90;99.90
31967;DHT22;18496;52.042;6.812;2023-12-14T10:38:04;7.90;99.90
31967;DHT22;18496;52.042;6.812;2023-12-14T10:40:13;7.90;99.90
31967;DHT22;18496;52.042;6.812;2023-12-14T10:42:18;7.90;99.90
31967;DHT22;18496;52.042;6.812;2023-12-14T10:44:27;7.90;99.90
31967;DHT22;18496;52.042;6.812;2023-12-14T10:46:32;7.90;99.90
31967;DHT22;18496;52.042;6.812;2023-12-14T10:48:36;8.00;99.90
31967;DHT22;18496;52.042;6.812;2023-12-14T10:50:50;8.00;99.90
31967;DHT22;18496;52.042;6.812;2023-12-14T10:52:55;8.10;99.90
31967;DHT22;18496;52.042;6.812;2023-12-14T10:55:06;8.10;99.90
31967;DHT22;18496;52.042;6.812;2023-12-14T10:57:10;8.10;99.90
31967;DHT22;18496;52.042;6.812;2023-12-14T10:59:17;8.10;99.90
31967;DHT22;18496;52.042;6.812;2023-12-14T11:01:24;8.10;99.90
31967;DHT22;18496;52.042;6.812;2023-12-14T11:03:33;8.00;99.90
31967;DHT22;18496;52.042;6.812;2023-12-14T11:05:38;8.10;99.90
31967;DHT22;18496;52.042;6.812;2023-12-14T11:07:51;8.00;99.90
31967;DHT22;18496;52.042;6.812;2023-12-14T11:09:56;8.10;99.90
31967;DHT22;18496;52.042;6.812;2023-12-14T11:12:00;8.00;99.90
31967;DHT22;18496;52.042;6.812;2023-12-14T11:14:08;8.10;99.90
31967;DHT22;18496;52.042;6.812;2023-12-14T11:16:14;8.10;99.90
31967;DHT22;18496;52.042;6.812;2023-12-14T11:20:26;8.10;99.90
31967;DHT22;18496;52.042;6.812;2023-12-14T11:22:30;8.20;99.90
31967;DHT22;18496;52.042;6.812;2023-12-14T11:24:35;8.20;99.90
31967;DHT22;18496;52.042;6.812;2023-12-14T11:26:40;8.20;99.90
31967;DHT22;18496;52.042;6.812;2023-12-14T11:28:43;8.20;99.90
31967;DHT22;18496;52.042;6.812;2023-12-14T11:30:48;8.20;99.90
31967;DHT22;18496;52.042;6.812;2023-12-14T11:32:53;8.20;99.90
31967;DHT22;18496;52.042;6.812;2023-12-14T11:34:57;8.20;99.90
31967;DHT22;18496;52.042;6.812;2023-12-14T11:37:01;8.10;99.90
31967;DHT22;18496;52.042;6.812;2023-12-14T11:39:04;8.10;99.90
31967;DHT22;18496;52.042;6.812;2023-12-14T11:41:09;8.10;99.90
31967;DHT22;18496;52.042;6.812;2023-12-14T11:43:12;8.10;99.90
31967;DHT22;18496;52.042;6.812;2023-12-14T11:45:17;8.20;99.90
31967;DHT22;18496;52.042;6.812;2023-12-14T11:47:21;8.20;99.90
31967;DHT22;18496;52.042;6.812;2023-12-14T11:49:26;8.20;99.90
31967;DHT22;18496;52.042;6.812;2023-12-14T11:51:30;8.10;99.90
31967;DHT22;18496;52.042;6.812;2023-12-14T11:53:36;8.10;99.90
31967;DHT22;18496;52.042;6.812;2023-12-14T11:55:43;8.10;99.90
31967;DHT22;18496;52.042;6.812;2023-12-14T11:57:49;8.10;99.90
31967;DHT22;18496;52.042;6.812;2023-12-14T11:59:53;8.10;99.90
31967;DHT22;18496;52.042;6.812;2023-12-14T12:02:01;8.00;99.90
31967;DHT22;18496;52.042;6.812;2023-12-14T12:04:10;8.00;99.90
31967;DHT22;18496;52.042;6.812;2023-12-14T12:06:22;8.00;99.90
31967;DHT22;18496;52.042;6.812;2023-12-14T12:08:26;8.00;99.90
31967;DHT22;18496;52.042;6.812;2023-12-14T12:10:30;8.00;99.90
31967;DHT22;18496;52.042;6.812;2023-12-14T12:12:34;8.00;99.90
31967;DHT22;18496;52.042;6.812;2023-12-14T12:14:39;8.00;99.90
31967;DHT22;18496;52.042;6.812;2023-12-14T12:16:43;8.10;99.90
31967;DHT22;18496;52.042;6.812;2023-12-14T12:18:46;8.00;99.90
31967;DHT22;18496;52.042;6.812;2023-12-14T12:20:50;8.00;99.90
31967;DHT22;18496;52.042;6.812;2023-12-14T12:22:54;8.00;99.90
31967;DHT22;18496;52.042;6.812;2023-12-14T12:24:58;8.00;99.90
31967;DHT22;18496;52.042;6.812;2023-12-14T12:27:02;8.00;99.90
31967;DHT22;18496;52.042;6.812;2023-12-14T12:29:06;8.00;99.90
31967;DHT22;18496;52.042;6.812;2023-12-14T12:31:09;8.00;99.90
31967;DHT22;18496;52.042;6.812;2023-12-14T12:33:13;8.10;99.90
31967;DHT22;18496;52.042;6.812;2023-12-14T12:35:20;8.00;99.90
31967;DHT22;18496;52.042;6.812;2023-12-14T12:37:24;8.10;99.90
31967;DHT22;18496;52.042;6.812;2023-12-14T12:39:28;8.00;99.90
31967;DHT22;18496;52.042;6.812;2023-12-14T12:41:33;8.00;99.90
31967;DHT22;18496;52.042;6.812;2023-12-14T12:43:36;8.00;99.90
31967;DHT22;18496;52.042;6.812;2023-12-14T12:45:40;8.00;99.90
31967;DHT22;18496;52.042;6.812;2023-12-14T12:47:44;8.00;99.90
31967;DHT22;18496;52.042;6.812;2023-12-14T12:49:48;8.00;99.90
31967;DHT22;18496;52.042;6.812;2023-12-14T12:51:52;8.00;99.90
31967;DHT22;18496;52.042;6.812;2023-12-14T12:53:56;8.00;99.90
31967;DHT22;18496;52.042;6.812;2023-12-14T12:56:00;8.00;99.90
31967;DHT22;18496;52.042;6.812;2023-12-14T12:58:05;8.00;99.90
31967;DHT22;18496;52.042;6.812;2023-12-14T13:00:10;8.00;99.90
31967;DHT22;18496;52.042;6.812;2023-12-14T13:02:14;8.00;99.90
31967;DHT22;18496;52.042;6.812;2023-12-14T13:04:19;8.00;99.90
31967;DHT22;18496;52.042;6.812;2023-12-14T13:06:24;8.00;99.90
31967;DHT22;18496;52.042;6.812;2023-12-14T13:08:29;8.00;99.90
31967;DHT22;18496;52.042;6.812;2023-12-14T13:10:32;8.00;99.90
31967;DHT22;18496;52.042;6.812;2023-12-14T13:12:36;8.00;99.90
31967;DHT22;18496;52.042;6.812;2023-12-14T13:14:40;8.00;99.90
31967;DHT22;18496;52.042;6.812;2023-12-14T13:16:44;8.00;99.90
31967;DHT22;18496;52.042;6.812;2023-12-14T13:18:47;8.00;99.90
31967;DHT22;18496;52.042;6.812;2023-12-14T13:20:51;8.00;99.90